sensor_id;sensor_type;location;lat;lon;timestamp;pressure;altitude;pressure_sealevel;temperature;humidity
68758;BME280;55747;51.998;4.466;2022-09-13T00:01:40;56326.94;;;-144.48;70.84
68758;BME280;55747;51.998;4.466;2022-09-13T00:04:05;56360.00;;;-144.48;70.89
68758;BME280;55747;51.998;4.466;2022-09-13T00:06:30;56312.47;;;-144.48;70.86
68758;BME280;55747;51.998;4.466;2022-09-13T00:08:56;56341.41;;;-144.48;70.93
68758;BME280;55747;51.998;4.466;2022-09-13T00:11:24;56341.41;;;-144.48;71.12
68758;BME280;55747;51.998;4.466;2022-09-13T00:13:51;56326.94;;;-144.48;71.19
68758;BME280;55747;51.998;4.466;2022-09-13T00:16:18;56326.94;;;-144.48;71.48
68758;BME280;55747;51.998;4.466;2022-09-13T00:18:43;56329.00;;;-144.48;71.97
68758;BME280;55747;51.998;4.466;2022-09-13T00:21:15;56329.00;;;-144.48;72.26
68758;BME280;55747;51.998;4.466;2022-09-13T00:23:46;56357.94;;;-144.48;72.45
68758;BME280;55747;51.998;4.466;2022-09-13T00:26:23;56353.81;;;-144.48;72.37
68758;BME280;55747;51.998;4.466;2022-09-13T00:28:50;56331.06;;;-144.48;72.29
68758;BME280;55747;51.998;4.466;2022-09-13T00:31:16;56302.13;;;-144.48;72.25
68758;BME280;55747;51.998;4.466;2022-09-13T00:33:42;56341.41;;;-144.48;72.14
68758;BME280;55747;51.998;4.466;2022-09-13T00:36:09;56382.75;;;-144.48;72.17
68758;BME280;55747;51.998;4.466;2022-09-13T00:38:36;56386.88;;;-144.48;72.02
68758;BME280;55747;51.998;4.466;2022-09-13T00:41:06;56357.94;;;-144.48;71.76
68758;BME280;55747;51.998;4.466;2022-09-13T00:46:06;56364.13;;;-144.48;72.97
68758;BME280;55747;51.998;4.466;2022-09-13T00:48:33;56308.31;;;-144.48;73.20
68758;BME280;55747;51.998;4.466;2022-09-13T00:51:00;56347.59;;;-144.48;73.21
68758;BME280;55747;51.998;4.466;2022-09-13T00:53:37;56349.66;;;-144.48;71.90
68758;BME280;55747;51.998;4.466;2022-09-13T00:56:12;56376.53;;;-144.48;71.53
68758;BME280;55747;51.998;4.466;2022-09-13T00:58:46;56351.75;;;-144.48;71.88
68758;BME280;55747;51.998;4.466;2022-09-13T01:01:14;56362.06;;;-144.48;72.04
68758;BME280;55747;51.998;4.466;2022-09-13T01:03:42;56335.19;;;-144.48;72.17
68758;BME280;55747;51.998;4.466;2022-09-13T01:06:18;56320.72;;;-144.48;72.75
68758;BME280;55747;51.998;4.466;2022-09-13T01:08:47;56322.78;;;-144.48;72.83
68758;BME280;55747;51.998;4.466;2022-09-13T01:11:29;56306.25;;;-144.48;73.78
68758;BME280;55747;51.998;4.466;2022-09-13T01:13:57;56331.06;;;-144.48;74.19
68758;BME280;55747;51.998;4.466;2022-09-13T01:16:25;56355.88;;;-144.48;74.32
68758;BME280;55747;51.998;4.466;2022-09-13T01:18:51;56304.19;;;-144.48;74.72
68758;BME280;55747;51.998;4.466;2022-09-13T01:21:37;56326.94;;;-144.48;75.30
68758;BME280;55747;51.998;4.466;2022-09-13T01:32:38;56322.78;;;-144.48;76.94
68758;BME280;55747;51.998;4.466;2022-09-13T01:43:19;56384.81;;;-144.48;77.76
68758;BME280;55747;51.998;4.466;2022-09-13T01:46:03;56360.00;;;-144.48;77.83
68758;BME280;55747;51.998;4.466;2022-09-13T01:48:33;56355.88;;;-144.48;78.43
68758;BME280;55747;51.998;4.466;2022-09-13T01:51:22;56364.13;;;-144.48;78.73
68758;BME280;55747;51.998;4.466;2022-09-13T01:56:53;56347.59;;;-144.48;79.38
68758;BME280;55747;51.998;4.466;2022-09-13T01:59:29;56337.25;;;-144.48;79.64
68758;BME280;55747;51.998;4.466;2022-09-13T02:02:02;56374.47;;;-144.48;79.80
68758;BME280;55747;51.998;4.466;2022-09-13T02:04:35;56374.47;;;-144.48;79.89
68758;BME280;55747;51.998;4.466;2022-09-13T02:07:13;56351.75;;;-144.48;80.05
68758;BME280;55747;51.998;4.466;2022-09-13T02:09:46;56411.69;;;-144.48;80.53
68758;BME280;55747;51.998;4.466;2022-09-13T02:12:19;56370.34;;;-144.48;80.98
68758;BME280;55747;51.998;4.466;2022-09-13T02:15:01;56384.81;;;-144.48;81.15
68758;BME280;55747;51.998;4.466;2022-09-13T02:17:34;56374.47;;;-144.48;81.32
68758;BME280;55747;51.998;4.466;2022-09-13T02:20:04;56339.34;;;-144.48;81.30
68758;BME280;55747;51.998;4.466;2022-09-13T02:22:36;56364.13;;;-144.48;81.35
68758;BME280;55747;51.998;4.466;2022-09-13T02:25:06;56333.13;;;-144.48;81.38
68758;BME280;55747;51.998;4.466;2022-09-13T02:27:36;56353.81;;;-144.48;81.38
68758;BME280;55747;51.998;4.466;2022-09-13T02:30:06;56355.88;;;-144.48;81.51
68758;BME280;55747;51.998;4.466;2022-09-13T02:32:36;56372.41;;;-144.48;81.98
68758;BME280;55747;51.998;4.466;2022-09-13T02:35:09;56329.00;;;-144.48;82.11
68758;BME280;55747;51.998;4.466;2022-09-13T02:37:39;56386.88;;;-144.48;82.58
68758;BME280;55747;51.998;4.466;2022-09-13T02:40:13;56345.53;;;-144.48;82.97
68758;BME280;55747;51.998;4.466;2022-09-13T02:42:49;56341.41;;;-144.48;83.22
68758;BME280;55747;51.998;4.466;2022-09-13T02:45:17;56355.88;;;-144.48;83.31
68758;BME280;55747;51.998;4.466;2022-09-13T02:48:07;56386.88;;;-144.48;83.60
68758;BME280;55747;51.998;4.466;2022-09-13T02:51:12;56393.09;;;-144.48;83.68
68758;BME280;55747;51.998;4.466;2022-09-13T02:53:49;56388.94;;;-144.48;83.76
68758;BME280;55747;51.998;4.466;2022-09-13T02:56:33;56355.88;;;-144.48;83.51
68758;BME280;55747;51.998;4.466;2022-09-13T02:59:13;56374.47;;;-144.48;83.14
68758;BME280;55747;51.998;4.466;2022-09-13T03:01:41;56335.19;;;-144.48;83.20
68758;BME280;55747;51.998;4.466;2022-09-13T03:04:09;56370.34;;;-144.48;83.41
68758;BME280;55747;51.998;4.466;2022-09-13T03:06:36;56393.09;;;-144.48;83.33
68758;BME280;55747;51.998;4.466;2022-09-13T03:09:03;56391.00;;;-144.48;83.35
68758;BME280;55747;51.998;4.466;2022-09-13T03:11:46;56366.22;;;-144.48;83.06
68758;BME280;55747;51.998;4.466;2022-09-13T03:17:11;56376.53;;;-144.48;82.75
68758;BME280;55747;51.998;4.466;2022-09-13T03:20:10;56372.41;;;-144.48;83.00
68758;BME280;55747;51.998;4.466;2022-09-13T03:25:51;56355.88;;;-144.48;83.17
68758;BME280;55747;51.998;4.466;2022-09-13T03:28:32;56386.88;;;-144.48;83.51
68758;BME280;55747;51.998;4.466;2022-09-13T03:31:12;56376.53;;;-144.48;83.46
68758;BME280;55747;51.998;4.466;2022-09-13T03:33:47;56386.88;;;-144.48;83.62
68758;BME280;55747;51.998;4.466;2022-09-13T03:39:06;56395.16;;;-144.48;83.75
68758;BME280;55747;51.998;4.466;2022-09-13T03:41:39;56376.53;;;-144.48;83.78
68758;BME280;55747;51.998;4.466;2022-09-13T03:44:09;56399.28;;;-144.48;83.76
68758;BME280;55747;51.998;4.466;2022-09-13T03:46:42;56372.41;;;-144.48;83.81
68758;BME280;55747;51.998;4.466;2022-09-13T03:49:16;56413.75;;;-144.48;83.77
68758;BME280;55747;51.998;4.466;2022-09-13T03:51:44;56428.22;;;-144.48;83.75
68758;BME280;55747;51.998;4.466;2022-09-13T03:54:21;56362.06;;;-144.48;84.37
68758;BME280;55747;51.998;4.466;2022-09-13T03:57:16;56362.06;;;-144.48;84.61
68758;BME280;55747;51.998;4.466;2022-09-13T03:59:47;56384.81;;;-144.48;84.57
68758;BME280;55747;51.998;4.466;2022-09-13T04:02:14;56380.69;;;-144.48;84.87
68758;BME280;55747;51.998;4.466;2022-09-13T04:04:40;56374.47;;;-144.48;85.14
68758;BME280;55747;51.998;4.466;2022-09-13T04:07:07;56393.09;;;-144.48;85.16
68758;BME280;55747;51.998;4.466;2022-09-13T04:09:33;56440.63;;;-144.48;85.45
68758;BME280;55747;51.998;4.466;2022-09-13T04:11:58;56403.41;;;-144.48;85.88
68758;BME280;55747;51.998;4.466;2022-09-13T04:14:24;56397.22;;;-144.48;86.12
68758;BME280;55747;51.998;4.466;2022-09-13T04:16:52;56393.09;;;-144.48;86.62
68758;BME280;55747;51.998;4.466;2022-09-13T04:19:18;56395.16;;;-144.48;87.01
68758;BME280;55747;51.998;4.466;2022-09-13T04:21:46;56413.75;;;-144.48;87.08
68758;BME280;55747;51.998;4.466;2022-09-13T04:24:11;56413.75;;;-144.48;87.28
68758;BME280;55747;51.998;4.466;2022-09-13T04:26:37;56405.50;;;-144.48;87.41
68758;BME280;55747;51.998;4.466;2022-09-13T04:29:03;56407.56;;;-144.48;87.85
68758;BME280;55747;51.998;4.466;2022-09-13T04:31:28;56403.41;;;-144.48;88.21
68758;BME280;55747;51.998;4.466;2022-09-13T04:33:53;56384.81;;;-144.48;88.51
68758;BME280;55747;51.998;4.466;2022-09-13T04:36:19;56360.00;;;-144.48;88.63
68758;BME280;55747;51.998;4.466;2022-09-13T04:38:45;56424.09;;;-144.48;88.53
68758;BME280;55747;51.998;4.466;2022-09-13T04:41:10;56411.69;;;-144.48;88.41
68758;BME280;55747;51.998;4.466;2022-09-13T04:43:37;56422.03;;;-144.48;88.64
68758;BME280;55747;51.998;4.466;2022-09-13T04:46:03;56397.22;;;-144.48;88.48
68758;BME280;55747;51.998;4.466;2022-09-13T04:48:28;56409.63;;;-144.48;88.24
68758;BME280;55747;51.998;4.466;2022-09-13T04:51:00;56407.56;;;-144.48;88.50
68758;BME280;55747;51.998;4.466;2022-09-13T04:53:25;56407.56;;;-144.48;88.78
68758;BME280;55747;51.998;4.466;2022-09-13T04:55:50;56409.63;;;-144.48;88.71
68758;BME280;55747;51.998;4.466;2022-09-13T04:58:17;56403.41;;;-144.48;88.60
68758;BME280;55747;51.998;4.466;2022-09-13T05:00:42;56409.63;;;-144.48;88.50
68758;BME280;55747;51.998;4.466;2022-09-13T05:03:08;56409.63;;;-144.48;88.15
68758;BME280;55747;51.998;4.466;2022-09-13T05:05:33;56391.00;;;-144.48;87.86
68758;BME280;55747;51.998;4.466;2022-09-13T05:07:58;56411.69;;;-144.48;87.70
68758;BME280;55747;51.998;4.466;2022-09-13T05:10:23;56399.28;;;-144.48;87.72
68758;BME280;55747;51.998;4.466;2022-09-13T05:12:49;56401.34;;;-144.48;87.39
68758;BME280;55747;51.998;4.466;2022-09-13T05:15:14;56432.38;;;-144.48;87.07
68758;BME280;55747;51.998;4.466;2022-09-13T05:17:39;56366.22;;;-144.48;86.93
68758;BME280;55747;51.998;4.466;2022-09-13T05:20:05;56401.34;;;-144.48;87.02
68758;BME280;55747;51.998;4.466;2022-09-13T05:22:30;56407.56;;;-144.48;86.77
68758;BME280;55747;51.998;4.466;2022-09-13T05:24:56;56417.91;;;-144.48;86.69
68758;BME280;55747;51.998;4.466;2022-09-13T05:27:21;56401.34;;;-144.48;86.81
68758;BME280;55747;51.998;4.466;2022-09-13T05:29:47;56399.28;;;-144.48;87.07
68758;BME280;55747;51.998;4.466;2022-09-13T05:32:12;56384.81;;;-144.48;86.92
68758;BME280;55747;51.998;4.466;2022-09-13T05:34:38;56397.22;;;-144.48;86.97
68758;BME280;55747;51.998;4.466;2022-09-13T05:37:03;56393.09;;;-144.48;86.98
68758;BME280;55747;51.998;4.466;2022-09-13T05:39:28;56407.56;;;-144.48;87.00
68758;BME280;55747;51.998;4.466;2022-09-13T05:41:53;56438.56;;;-144.48;86.79
68758;BME280;55747;51.998;4.466;2022-09-13T05:44:19;56397.22;;;-144.48;86.84
68758;BME280;55747;51.998;4.466;2022-09-13T05:46:47;56419.97;;;-144.48;86.88
68758;BME280;55747;51.998;4.466;2022-09-13T05:49:13;56409.63;;;-144.48;86.78
68758;BME280;55747;51.998;4.466;2022-09-13T05:51:39;56411.69;;;-144.48;86.50
68758;BME280;55747;51.998;4.466;2022-09-13T05:54:04;56376.53;;;-144.48;86.37
68758;BME280;55747;51.998;4.466;2022-09-13T05:56:29;56428.22;;;-144.48;86.19
68758;BME280;55747;51.998;4.466;2022-09-13T05:58:56;56401.34;;;-144.48;85.75
68758;BME280;55747;51.998;4.466;2022-09-13T06:01:25;56362.06;;;-144.48;85.51
68758;BME280;55747;51.998;4.466;2022-09-13T06:03:52;56397.22;;;-144.48;85.13
68758;BME280;55747;51.998;4.466;2022-09-13T06:06:18;56409.63;;;-144.48;84.79
68758;BME280;55747;51.998;4.466;2022-09-13T06:08:45;56424.09;;;-144.48;84.35
68758;BME280;55747;51.998;4.466;2022-09-13T06:11:12;56384.81;;;-144.48;83.94
68758;BME280;55747;51.998;4.466;2022-09-13T06:13:38;56405.50;;;-144.48;83.77
68758;BME280;55747;51.998;4.466;2022-09-13T06:16:06;56360.00;;;-144.48;83.52
68758;BME280;55747;51.998;4.466;2022-09-13T06:18:32;56401.34;;;-144.48;83.68
68758;BME280;55747;51.998;4.466;2022-09-13T06:21:03;56417.91;;;-144.48;83.68
68758;BME280;55747;51.998;4.466;2022-09-13T06:23:29;56355.88;;;-144.48;83.67
68758;BME280;55747;51.998;4.466;2022-09-13T06:26:06;56376.53;;;-144.48;83.30
68758;BME280;55747;51.998;4.466;2022-09-13T06:28:33;56411.69;;;-144.48;82.67
68758;BME280;55747;51.998;4.466;2022-09-13T06:31:00;56388.94;;;-144.48;81.67
68758;BME280;55747;51.998;4.466;2022-09-13T06:33:26;56399.28;;;-144.48;80.74
68758;BME280;55747;51.998;4.466;2022-09-13T06:35:51;56366.22;;;-144.48;78.67
68758;BME280;55747;51.998;4.466;2022-09-13T06:38:17;56380.69;;;-144.48;74.97
68758;BME280;55747;51.998;4.466;2022-09-13T06:40:42;56355.88;;;-144.48;69.52
68758;BME280;55747;51.998;4.466;2022-09-13T06:43:09;56362.06;;;-144.48;64.63
68758;BME280;55747;51.998;4.466;2022-09-13T06:45:34;56320.72;;;-144.48;64.15
68758;BME280;55747;51.998;4.466;2022-09-13T06:47:59;56349.66;;;-144.48;61.65
68758;BME280;55747;51.998;4.466;2022-09-13T06:50:24;56295.91;;;-144.48;57.67
68758;BME280;55747;51.998;4.466;2022-09-13T06:52:50;56298.00;;;-144.48;53.67
68758;BME280;55747;51.998;4.466;2022-09-13T06:55:15;56293.84;;;-144.48;52.74
68758;BME280;55747;51.998;4.466;2022-09-13T06:57:40;56285.59;;;-144.48;54.40
68758;BME280;55747;51.998;4.466;2022-09-13T07:00:06;56279.38;;;-144.48;54.54
68758;BME280;55747;51.998;4.466;2022-09-13T07:02:32;56271.13;;;-144.48;54.94
68758;BME280;55747;51.998;4.466;2022-09-13T07:04:57;56291.78;;;-144.48;57.05
68758;BME280;55747;51.998;4.466;2022-09-13T07:07:22;56293.84;;;-144.48;55.21
68758;BME280;55747;51.998;4.466;2022-09-13T07:09:48;56277.31;;;-144.48;51.36
68758;BME280;55747;51.998;4.466;2022-09-13T07:12:13;56302.13;;;-144.48;50.47
68758;BME280;55747;51.998;4.466;2022-09-13T07:14:38;56281.44;;;-144.48;49.59
68758;BME280;55747;51.998;4.466;2022-09-13T07:17:03;56269.03;;;-144.48;46.80
68758;BME280;55747;51.998;4.466;2022-09-13T07:19:29;56223.56;;;-144.48;48.38
68758;BME280;55747;51.998;4.466;2022-09-13T07:21:56;56252.50;;;-144.48;47.55
68758;BME280;55747;51.998;4.466;2022-09-13T07:24:22;56233.91;;;-144.48;47.57
68758;BME280;55747;51.998;4.466;2022-09-13T07:26:48;56260.78;;;-144.48;47.93
68758;BME280;55747;51.998;4.466;2022-09-13T07:29:16;56275.25;;;-144.48;51.02
68758;BME280;55747;51.998;4.466;2022-09-13T07:31:45;56295.91;;;-144.48;55.57
68758;BME280;55747;51.998;4.466;2022-09-13T07:34:19;56322.78;;;-144.48;59.92
68758;BME280;55747;51.998;4.466;2022-09-13T07:36:45;56306.25;;;-144.48;62.33
68758;BME280;55747;51.998;4.466;2022-09-13T07:39:12;56295.91;;;-144.48;62.78
68758;BME280;55747;51.998;4.466;2022-09-13T07:41:38;56312.47;;;-144.48;60.21
68758;BME280;55747;51.998;4.466;2022-09-13T07:44:04;56302.13;;;-144.48;58.89
68758;BME280;55747;51.998;4.466;2022-09-13T07:46:33;56269.03;;;-144.48;56.47
68758;BME280;55747;51.998;4.466;2022-09-13T07:49:00;56293.84;;;-144.48;55.74
68758;BME280;55747;51.998;4.466;2022-09-13T07:51:28;56283.50;;;-144.48;55.78
68758;BME280;55747;51.998;4.466;2022-09-13T07:53:55;56298.00;;;-144.48;55.73
68758;BME280;55747;51.998;4.466;2022-09-13T07:56:26;56269.03;;;-144.48;54.03
68758;BME280;55747;51.998;4.466;2022-09-13T07:58:52;56250.44;;;-144.48;52.94
68758;BME280;55747;51.998;4.466;2022-09-13T08:01:32;56256.63;;;-144.48;51.05
68758;BME280;55747;51.998;4.466;2022-09-13T08:03:59;56271.13;;;-144.48;49.13
68758;BME280;55747;51.998;4.466;2022-09-13T08:06:28;56256.63;;;-144.48;48.29
68758;BME280;55747;51.998;4.466;2022-09-13T08:08:54;56260.78;;;-144.48;48.62
68758;BME280;55747;51.998;4.466;2022-09-13T08:11:28;56254.56;;;-144.48;47.41
68758;BME280;55747;51.998;4.466;2022-09-13T08:13:54;56246.31;;;-144.48;45.40
68758;BME280;55747;51.998;4.466;2022-09-13T08:16:21;56223.56;;;-144.48;44.75
68758;BME280;55747;51.998;4.466;2022-09-13T08:18:49;56219.44;;;-144.48;44.00
68758;BME280;55747;51.998;4.466;2022-09-13T08:21:15;56209.09;;;-144.48;44.40
68758;BME280;55747;51.998;4.466;2022-09-13T08:23:41;56207.03;;;-144.48;43.93
68758;BME280;55747;51.998;4.466;2022-09-13T08:26:07;56184.28;;;-144.48;43.31
68758;BME280;55747;51.998;4.466;2022-09-13T08:28:34;56219.44;;;-144.48;43.13
68758;BME280;55747;51.998;4.466;2022-09-13T08:31:11;56215.28;;;-144.48;43.76
68758;BME280;55747;51.998;4.466;2022-09-13T08:33:43;56194.63;;;-144.48;44.86
68758;BME280;55747;51.998;4.466;2022-09-13T08:36:09;56223.56;;;-144.48;45.05
68758;BME280;55747;51.998;4.466;2022-09-13T08:38:34;56248.38;;;-144.48;46.66
68758;BME280;55747;51.998;4.466;2022-09-13T08:41:11;56256.63;;;-144.48;48.37
68758;BME280;55747;51.998;4.466;2022-09-13T08:43:58;56207.03;;;-144.48;46.13
68758;BME280;55747;51.998;4.466;2022-09-13T08:46:44;56277.31;;;-144.48;49.98
68758;BME280;55747;51.998;4.466;2022-09-13T08:49:23;56238.03;;;-144.48;51.65
68758;BME280;55747;51.998;4.466;2022-09-13T08:51:53;56273.19;;;-144.48;53.17
68758;BME280;55747;51.998;4.466;2022-09-13T08:54:20;56289.72;;;-144.48;54.73
68758;BME280;55747;51.998;4.466;2022-09-13T08:56:57;56275.25;;;-144.48;55.63
68758;BME280;55747;51.998;4.466;2022-09-13T08:59:49;56269.03;;;-144.48;56.16
68758;BME280;55747;51.998;4.466;2022-09-13T09:02:57;56310.38;;;-144.48;53.86
68758;BME280;55747;51.998;4.466;2022-09-13T09:05:28;56233.91;;;-144.48;49.39
68758;BME280;55747;51.998;4.466;2022-09-13T09:10:49;56260.78;;;-144.48;48.81
68758;BME280;55747;51.998;4.466;2022-09-13T09:13:22;56231.84;;;-144.48;47.60
68758;BME280;55747;51.998;4.466;2022-09-13T09:15:57;56225.63;;;-144.48;44.04
68758;BME280;55747;51.998;4.466;2022-09-13T09:18:28;56196.69;;;-144.48;44.04
68758;BME280;55747;51.998;4.466;2022-09-13T09:20:57;56204.97;;;-144.48;40.95
68758;BME280;55747;51.998;4.466;2022-09-13T09:23:29;56178.09;;;-144.48;39.66
68758;BME280;55747;51.998;4.466;2022-09-13T09:26:15;56176.00;;;-144.48;41.12
68758;BME280;55747;51.998;4.466;2022-09-13T09:28:42;56229.75;;;-144.48;42.46
68758;BME280;55747;51.998;4.466;2022-09-13T09:31:13;56169.81;;;-144.48;39.51
68758;BME280;55747;51.998;4.466;2022-09-13T09:38:42;56238.03;;;-144.48;46.41
68758;BME280;55747;51.998;4.466;2022-09-13T09:41:27;56229.75;;;-144.48;47.87
68758;BME280;55747;51.998;4.466;2022-09-13T09:46:27;56231.84;;;-144.48;50.06
68758;BME280;55747;51.998;4.466;2022-09-13T09:52:31;56248.38;;;-144.48;50.99
68758;BME280;55747;51.998;4.466;2022-09-13T09:55:09;56256.63;;;-144.48;50.07
68758;BME280;55747;51.998;4.466;2022-09-13T09:58:02;56262.84;;;-144.48;49.71
68758;BME280;55747;51.998;4.466;2022-09-13T10:00:36;56250.44;;;-144.48;47.65
68758;BME280;55747;51.998;4.466;2022-09-13T10:03:17;56192.56;;;-144.48;43.96
68758;BME280;55747;51.998;4.466;2022-09-13T10:05:44;56211.16;;;-144.48;44.04
68758;BME280;55747;51.998;4.466;2022-09-13T10:08:25;56202.88;;;-144.48;43.80
68758;BME280;55747;51.998;4.466;2022-09-13T10:10:53;56215.28;;;-144.48;41.50
68758;BME280;55747;51.998;4.466;2022-09-13T10:13:20;56209.09;;;-144.48;40.56
68758;BME280;55747;51.998;4.466;2022-09-13T10:16:01;56176.00;;;-144.48;39.39
68758;BME280;55747;51.998;4.466;2022-09-13T10:18:32;56151.22;;;-144.48;37.02
68758;BME280;55747;51.998;4.466;2022-09-13T10:23:43;56122.28;;;-144.48;35.27
68758;BME280;55747;51.998;4.466;2022-09-13T10:26:11;56140.88;;;-144.48;36.66
68758;BME280;55747;51.998;4.466;2022-09-13T10:31:17;56136.75;;;-144.48;35.95
68758;BME280;55747;51.998;4.466;2022-09-13T10:36:25;56122.28;;;-144.48;34.68
68758;BME280;55747;51.998;4.466;2022-09-13T10:39:27;56159.47;;;-144.48;34.01
68758;BME280;55747;51.998;4.466;2022-09-13T10:42:03;56159.47;;;-144.48;37.95
68758;BME280;55747;51.998;4.466;2022-09-13T10:47:25;56176.00;;;-144.48;38.47
68758;BME280;55747;51.998;4.466;2022-09-13T10:49:56;56165.69;;;-144.48;37.48
68758;BME280;55747;51.998;4.466;2022-09-13T10:52:34;56132.59;;;-144.48;36.38
68758;BME280;55747;51.998;4.466;2022-09-13T10:57:50;56083.00;;;-144.48;31.47
68758;BME280;55747;51.998;4.466;2022-09-13T11:00:21;56072.66;;;-144.48;31.80
68758;BME280;55747;51.998;4.466;2022-09-13T11:11:17;56091.25;;;-144.48;32.21
68758;BME280;55747;51.998;4.466;2022-09-13T11:19:29;56138.81;;;-144.48;34.99
68758;BME280;55747;51.998;4.466;2022-09-13T11:25:24;56130.53;;;-144.48;35.15
68758;BME280;55747;51.998;4.466;2022-09-13T11:31:32;56099.53;;;-144.48;31.56
68758;BME280;55747;51.998;4.466;2022-09-13T11:39:30;56153.28;;;-144.48;35.94
68758;BME280;55747;51.998;4.466;2022-09-13T11:53:47;56095.38;;;-144.48;32.17
68758;BME280;55747;51.998;4.466;2022-09-13T11:56:37;56124.34;;;-144.48;33.64
68758;BME280;55747;51.998;4.466;2022-09-13T11:59:18;56066.44;;;-144.48;31.93
68758;BME280;55747;51.998;4.466;2022-09-13T12:01:49;56103.66;;;-144.48;32.87
68758;BME280;55747;51.998;4.466;2022-09-13T12:04:22;56126.41;;;-144.48;34.92
68758;BME280;55747;51.998;4.466;2022-09-13T12:06:54;56116.06;;;-144.48;34.34
68758;BME280;55747;51.998;4.466;2022-09-13T12:09:34;56105.72;;;-144.48;32.50
68758;BME280;55747;51.998;4.466;2022-09-13T12:12:10;56066.44;;;-144.48;30.61
68758;BME280;55747;51.998;4.466;2022-09-13T12:14:52;56060.25;;;-144.48;30.00
68758;BME280;55747;51.998;4.466;2022-09-13T12:17:37;56062.31;;;-144.48;30.34
68758;BME280;55747;51.998;4.466;2022-09-13T12:20:12;56091.25;;;-144.48;31.67
68758;BME280;55747;51.998;4.466;2022-09-13T12:22:40;56111.94;;;-144.48;31.13
68758;BME280;55747;51.998;4.466;2022-09-13T12:25:18;56116.06;;;-144.48;32.73
68758;BME280;55747;51.998;4.466;2022-09-13T12:27:50;56111.94;;;-144.48;33.97
68758;BME280;55747;51.998;4.466;2022-09-13T12:30:19;56114.00;;;-144.48;33.42
68758;BME280;55747;51.998;4.466;2022-09-13T12:32:45;56103.66;;;-144.48;32.65
68758;BME280;55747;51.998;4.466;2022-09-13T12:46:27;56087.13;;;-144.48;30.07
68758;BME280;55747;51.998;4.466;2022-09-13T12:49:50;56043.72;;;-144.48;29.42
68758;BME280;55747;51.998;4.466;2022-09-13T12:52:25;56095.38;;;-144.48;31.10
68758;BME280;55747;51.998;4.466;2022-09-13T12:57:55;56080.91;;;-144.48;31.92
68758;BME280;55747;51.998;4.466;2022-09-13T13:00:58;56095.38;;;-144.48;32.74
68758;BME280;55747;51.998;4.466;2022-09-13T13:03:33;56089.19;;;-144.48;31.12
68758;BME280;55747;51.998;4.466;2022-09-13T13:08:51;56103.66;;;-144.48;31.52
68758;BME280;55747;51.998;4.466;2022-09-13T13:11:19;56101.59;;;-144.48;31.74
68758;BME280;55747;51.998;4.466;2022-09-13T13:14:01;56107.78;;;-144.48;31.60
68758;BME280;55747;51.998;4.466;2022-09-13T13:16:37;56076.78;;;-144.48;30.96
68758;BME280;55747;51.998;4.466;2022-09-13T13:19:27;56093.31;;;-144.48;32.08
68758;BME280;55747;51.998;4.466;2022-09-13T13:21:53;56085.06;;;-144.48;31.87
68758;BME280;55747;51.998;4.466;2022-09-13T13:26:48;56083.00;;;-144.48;30.92
68758;BME280;55747;51.998;4.466;2022-09-13T13:34:41;56097.47;;;-144.48;32.42
68758;BME280;55747;51.998;4.466;2022-09-13T13:39:36;56103.66;;;-144.48;32.56
68758;BME280;55747;51.998;4.466;2022-09-13T13:42:23;56093.31;;;-144.48;30.67
68758;BME280;55747;51.998;4.466;2022-09-13T13:49:51;56068.53;;;-144.48;31.53
68758;BME280;55747;51.998;4.466;2022-09-13T14:00:23;56093.31;;;-144.48;32.31
68758;BME280;55747;51.998;4.466;2022-09-13T14:19:41;56142.94;;;-144.48;36.18
68758;BME280;55747;51.998;4.466;2022-09-13T14:22:14;56136.75;;;-144.48;36.13
68758;BME280;55747;51.998;4.466;2022-09-13T14:24:46;56140.88;;;-144.48;35.64
68758;BME280;55747;51.998;4.466;2022-09-13T14:27:25;56130.53;;;-144.48;34.96
68758;BME280;55747;51.998;4.466;2022-09-13T14:29:54;56130.53;;;-144.48;34.36
68758;BME280;55747;51.998;4.466;2022-09-13T14:32:26;56130.53;;;-144.48;34.47
68758;BME280;55747;51.998;4.466;2022-09-13T14:34:59;56107.78;;;-144.48;34.41
68758;BME280;55747;51.998;4.466;2022-09-13T14:37:28;56089.19;;;-144.48;33.00
68758;BME280;55747;51.998;4.466;2022-09-13T14:42:44;56130.53;;;-144.48;35.08
68758;BME280;55747;51.998;4.466;2022-09-13T14:45:32;56122.28;;;-144.48;36.44
68758;BME280;55747;51.998;4.466;2022-09-13T14:48:14;56138.81;;;-144.48;35.49
68758;BME280;55747;51.998;4.466;2022-09-13T14:53:21;56132.59;;;-144.48;35.63
68758;BME280;55747;51.998;4.466;2022-09-13T14:56:17;56138.81;;;-144.48;37.58
68758;BME280;55747;51.998;4.466;2022-09-13T14:58:48;56159.47;;;-144.48;39.00
68758;BME280;55747;51.998;4.466;2022-09-13T15:01:20;56171.88;;;-144.48;40.02
68758;BME280;55747;51.998;4.466;2022-09-13T15:03:50;56173.94;;;-144.48;40.64
68758;BME280;55747;51.998;4.466;2022-09-13T15:06:28;56157.41;;;-144.48;41.05
68758;BME280;55747;51.998;4.466;2022-09-13T15:11:36;56171.88;;;-144.48;43.00
68758;BME280;55747;51.998;4.466;2022-09-13T15:16:57;56194.63;;;-144.48;43.14
68758;BME280;55747;51.998;4.466;2022-09-13T15:19:39;56180.16;;;-144.48;42.09
68758;BME280;55747;51.998;4.466;2022-09-13T15:22:26;56196.69;;;-144.48;42.21
68758;BME280;55747;51.998;4.466;2022-09-13T15:24:55;56202.88;;;-144.48;42.19
68758;BME280;55747;51.998;4.466;2022-09-13T15:27:25;56180.16;;;-144.48;41.55
68758;BME280;55747;51.998;4.466;2022-09-13T15:29:56;56217.38;;;-144.48;42.15
68758;BME280;55747;51.998;4.466;2022-09-13T15:32:42;56207.03;;;-144.48;42.49
68758;BME280;55747;51.998;4.466;2022-09-13T15:35:17;56184.28;;;-144.48;43.82
68758;BME280;55747;51.998;4.466;2022-09-13T15:37:43;56186.34;;;-144.48;44.55
68758;BME280;55747;51.998;4.466;2022-09-13T15:42:40;56161.53;;;-144.48;43.43
68758;BME280;55747;51.998;4.466;2022-09-13T15:45:08;56202.88;;;-144.48;43.14
68758;BME280;55747;51.998;4.466;2022-09-13T15:47:37;56194.63;;;-144.48;43.80
68758;BME280;55747;51.998;4.466;2022-09-13T15:50:03;56217.38;;;-144.48;43.11